createdAt,value
2018-01-16T00:01:58.370Z,5.55
2018-01-16T00:04:26.673Z,2.60
2018-01-16T00:06:54.917Z,1.87
2018-01-16T00:09:23.261Z,3.95
2018-01-16T00:11:51.614Z,2.42
2018-01-16T00:14:20.656Z,2.87
2018-01-16T00:16:48.940Z,1.42
2018-01-16T00:19:17.221Z,8.57
2018-01-16T00:21:45.529Z,2.15
2018-01-16T00:24:13.869Z,4.12
2018-01-16T00:26:42.187Z,7.32
2018-01-16T00:29:10.446Z,2.20
2018-01-16T00:31:38.747Z,11.07
2018-01-16T00:34:07.797Z,6.00
2018-01-16T00:36:36.051Z,1.55
2018-01-16T00:39:04.369Z,3.92
2018-01-16T00:41:32.628Z,2.25
2018-01-16T00:44:00.896Z,1.45
2018-01-16T00:46:29.186Z,3.70
2018-01-16T00:48:57.548Z,1.50
2018-01-16T00:51:25.857Z,1.83
2018-01-16T00:53:54.144Z,1.67
2018-01-16T00:56:22.716Z,2.50
2018-01-16T00:58:50.948Z,0.70
2018-01-16T01:01:19.372Z,3.12
2018-01-16T01:03:47.688Z,2.28
2018-01-16T01:06:16.727Z,2.62
2018-01-16T01:08:45.025Z,1.73
2018-01-16T01:11:13.847Z,3.28
2018-01-16T01:13:42.906Z,3.80
2018-01-16T01:16:11.230Z,6.68
2018-01-16T01:18:40.301Z,2.33
2018-01-16T01:21:08.556Z,1.80
2018-01-16T01:23:36.863Z,2.37
2018-01-16T01:26:05.144Z,2.40
2018-01-16T01:28:33.440Z,2.75
2018-01-16T01:31:04.970Z,3.43
2018-01-16T01:33:33.248Z,3.63
2018-01-16T01:36:01.544Z,2.60
2018-01-16T01:38:30.582Z,4.05
2018-01-16T01:40:58.985Z,2.17
2018-01-16T01:43:27.297Z,2.15
2018-01-16T01:45:55.964Z,2.67
2018-01-16T01:48:24.236Z,5.93
2018-01-16T01:50:52.529Z,1.58
2018-01-16T01:53:20.828Z,7.18
2018-01-16T01:55:49.093Z,1.85
2018-01-16T01:58:17.388Z,2.60
2018-01-16T02:00:45.694Z,5.45
2018-01-16T02:03:14.373Z,1.87
2018-01-16T02:05:42.655Z,1.50
2018-01-16T02:08:10.950Z,1.75
2018-01-16T02:10:39.244Z,2.10
2018-01-16T02:13:07.622Z,6.50
2018-01-16T02:15:35.957Z,1.73
2018-01-16T02:18:04.994Z,3.65
2018-01-16T02:20:33.989Z,2.35
2018-01-16T02:23:02.271Z,4.60
2018-01-16T02:25:30.531Z,2.33
2018-01-16T02:27:58.933Z,3.47
2018-01-16T02:30:27.239Z,1.87
2018-01-16T02:32:56.308Z,4.85
2018-01-16T02:35:24.589Z,1.35
2018-01-16T02:37:52.905Z,2.22
2018-01-16T02:40:21.535Z,1.08
2018-01-16T02:42:49.832Z,4.22
2018-01-16T02:45:18.172Z,3.42
2018-01-16T02:47:46.443Z,3.72
2018-01-16T02:50:14.743Z,1.35
2018-01-16T02:52:43.061Z,2.85
2018-01-16T02:55:12.144Z,3.62
2018-01-16T02:57:40.454Z,1.57
2018-01-16T03:00:09.723Z,2.75
2018-01-16T03:02:37.986Z,1.40
2018-01-16T03:05:06.257Z,6.47
2018-01-16T03:07:34.724Z,5.40
2018-01-16T03:10:02.996Z,2.97
2018-01-16T03:12:31.553Z,2.42
2018-01-16T03:15:00.571Z,8.73
2018-01-16T03:17:29.000Z,1.23
2018-01-16T03:22:53.627Z,2.15
2018-01-16T03:25:22.772Z,4.90
2018-01-16T03:27:51.120Z,5.07
2018-01-16T03:30:20.152Z,2.80
2018-01-16T03:32:48.439Z,2.00
2018-01-16T03:35:31.552Z,4.45
2018-01-16T03:38:07.750Z,1.83
2018-01-16T03:40:36.078Z,4.32
2018-01-16T03:43:04.352Z,3.87
2018-01-16T03:45:32.643Z,3.03
2018-01-16T03:48:01.018Z,1.15
2018-01-16T03:50:29.335Z,1.93
2018-01-16T03:52:57.661Z,1.77
2018-01-16T03:55:25.998Z,1.20
2018-01-16T03:57:54.265Z,1.95
2018-01-16T04:00:23.031Z,3.10
2018-01-16T04:02:51.317Z,1.65
2018-01-16T04:05:19.624Z,1.50
2018-01-16T04:07:47.961Z,5.25
2018-01-16T04:10:17.035Z,0.80
2018-01-16T04:12:45.841Z,6.37
2018-01-16T04:15:14.111Z,0.80
2018-01-16T04:17:42.435Z,5.20
2018-01-16T04:20:10.764Z,2.33
2018-01-16T04:22:39.085Z,3.10
2018-01-16T04:25:07.361Z,2.30
2018-01-16T04:27:36.628Z,2.40
2018-01-16T04:30:05.188Z,1.07
2018-01-16T04:32:34.833Z,3.80
2018-01-16T04:35:03.398Z,3.20
2018-01-16T04:37:31.710Z,2.20
2018-01-16T04:40:00.048Z,0.70
2018-01-16T04:42:29.128Z,1.67
2018-01-16T04:44:58.169Z,3.72
2018-01-16T04:47:26.499Z,2.28
2018-01-16T04:49:55.649Z,3.50
2018-01-16T04:52:29.873Z,5.90
2018-01-16T04:54:58.151Z,0.73
2018-01-16T04:57:26.400Z,3.37
2018-01-16T04:59:54.740Z,1.23
2018-01-16T05:02:23.036Z,3.40
2018-01-16T05:04:52.103Z,0.70
2018-01-16T05:07:20.418Z,4.20
2018-01-16T05:09:49.144Z,1.70
2018-01-16T05:12:17.435Z,4.73
2018-01-16T05:14:45.757Z,2.13
2018-01-16T05:17:14.066Z,13.00
2018-01-16T05:19:42.337Z,2.53
2018-01-16T05:22:10.638Z,2.03
2018-01-16T05:24:38.928Z,1.40
2018-01-16T05:27:07.223Z,2.27
2018-01-16T05:29:36.274Z,1.53
2018-01-16T05:32:04.540Z,3.62
2018-01-16T05:34:33.169Z,2.77
2018-01-16T05:37:01.663Z,1.10
2018-01-16T05:39:29.941Z,4.30
2018-01-16T05:41:59.032Z,1.42
2018-01-16T05:44:27.323Z,1.95
2018-01-16T05:46:55.603Z,1.07
2018-01-16T05:49:23.906Z,2.00
2018-01-16T05:51:55.725Z,3.87
2018-01-16T05:54:24.057Z,0.90
2018-01-16T05:56:52.389Z,2.07
2018-01-16T05:59:20.656Z,2.70
2018-01-16T06:01:48.947Z,2.93
2018-01-16T06:04:17.215Z,1.67
2018-01-16T06:06:45.510Z,3.20
2018-01-16T06:09:14.570Z,1.97
2018-01-16T06:11:42.933Z,3.70
2018-01-16T06:14:11.194Z,1.60
2018-01-16T06:16:40.382Z,2.30
2018-01-16T06:19:08.648Z,4.07
2018-01-16T06:21:36.909Z,6.30
2018-01-16T06:24:05.199Z,1.50
2018-01-16T06:26:34.233Z,3.30
2018-01-16T06:29:02.585Z,0.98
2018-01-16T06:31:31.635Z,2.23
2018-01-16T06:34:00.277Z,3.33
2018-01-16T06:36:28.497Z,1.90
2018-01-16T06:38:56.772Z,1.27
2018-01-16T06:41:25.100Z,1.63
2018-01-16T06:43:53.367Z,3.90
2018-01-16T06:46:22.487Z,1.17
2018-01-16T06:48:50.746Z,0.77
2018-01-16T06:51:19.830Z,0.90
2018-01-16T06:53:48.863Z,0.73
2018-01-16T06:56:17.735Z,1.07
2018-01-16T06:58:46.740Z,1.17
2018-01-16T07:01:15.913Z,0.80
2018-01-16T07:03:44.973Z,1.20
2018-01-16T07:06:13.996Z,2.57
2018-01-16T07:08:42.300Z,2.50
2018-01-16T07:11:10.584Z,1.00
2018-01-16T07:13:38.864Z,1.13
2018-01-16T07:16:07.181Z,4.97
2018-01-16T07:18:35.667Z,1.13
2018-01-16T07:21:03.932Z,0.80
2018-01-16T07:23:32.208Z,2.80
2018-01-16T07:26:00.503Z,5.93
2018-01-16T07:28:28.801Z,3.50
2018-01-16T07:30:57.172Z,0.90
2018-01-16T07:33:25.438Z,2.13
2018-01-16T07:35:53.723Z,3.60
2018-01-16T07:38:22.075Z,2.90
2018-01-16T07:40:50.409Z,4.93
2018-01-16T07:43:19.461Z,3.77
2018-01-16T07:45:47.766Z,0.90
2018-01-16T07:48:16.077Z,5.70
2018-01-16T07:50:44.364Z,0.80
2018-01-16T07:53:12.671Z,1.43
2018-01-16T07:55:41.052Z,0.90
2018-01-16T07:58:09.967Z,2.70
2018-01-16T08:00:38.252Z,3.30
2018-01-16T08:03:07.309Z,0.77
2018-01-16T08:05:35.587Z,1.13
2018-01-16T08:08:03.905Z,0.90
2018-01-16T08:10:32.457Z,2.50
2018-01-16T08:13:00.727Z,1.67
2018-01-16T08:15:29.004Z,1.47
2018-01-16T08:17:57.321Z,0.60
2018-01-16T08:20:25.600Z,2.10
2018-01-16T08:22:53.897Z,1.83
2018-01-16T08:25:22.933Z,0.70
2018-01-16T08:27:51.258Z,0.70
2018-01-16T08:30:20.297Z,0.60
2018-01-16T08:32:48.584Z,1.37
2018-01-16T08:35:16.896Z,0.70
2018-01-16T08:37:45.170Z,0.60
2018-01-16T08:40:13.463Z,0.77
2018-01-16T08:42:42.488Z,4.07
2018-01-16T08:45:10.773Z,4.00
2018-01-16T08:47:39.058Z,5.73
2018-01-16T08:50:07.378Z,3.70
2018-01-16T08:52:36.165Z,7.63
2018-01-16T08:55:04.439Z,6.67
2018-01-16T08:57:32.732Z,8.00
2018-01-16T09:00:01.020Z,8.77
2018-01-16T09:02:30.121Z,12.30
2018-01-16T09:04:58.402Z,7.90
2018-01-16T09:07:27.454Z,7.87
2018-01-16T09:09:55.761Z,9.70
2018-01-16T09:12:24.802Z,10.47
2018-01-16T09:14:53.133Z,9.90
2018-01-16T09:17:21.382Z,8.40
2018-01-16T09:19:49.694Z,10.00
2018-01-16T09:22:18.769Z,9.03
2018-01-16T09:24:47.034Z,9.00
2018-01-16T09:27:15.329Z,7.60
2018-01-16T09:29:43.605Z,7.73
2018-01-16T09:32:11.915Z,10.10
2018-01-16T09:34:40.950Z,9.03
2018-01-16T09:37:09.675Z,13.43
2018-01-16T09:39:37.883Z,14.37
2018-01-16T09:42:06.190Z,8.17
2018-01-16T09:44:34.495Z,9.67
2018-01-16T09:47:02.778Z,12.50
2018-01-16T09:49:31.391Z,12.10
2018-01-16T09:52:00.419Z,9.27
2018-01-16T09:54:28.739Z,8.87
2018-01-16T09:56:57.001Z,19.30
2018-01-16T09:59:25.278Z,10.10
2018-01-16T10:01:53.596Z,8.60
2018-01-16T10:04:22.651Z,11.77
2018-01-16T10:06:51.039Z,9.17
2018-01-16T10:09:19.354Z,17.03
2018-01-16T10:11:47.886Z,16.17
2018-01-16T10:14:16.214Z,9.27
2018-01-16T10:16:44.506Z,10.77
2018-01-16T10:19:12.941Z,8.57
2018-01-16T10:21:41.241Z,10.40
2018-01-16T10:24:10.397Z,8.07
2018-01-16T10:26:38.732Z,9.80
2018-01-16T10:29:07.883Z,11.70
2018-01-16T10:31:36.129Z,9.63
2018-01-16T10:34:04.478Z,10.50
2018-01-16T10:36:32.774Z,12.00
2018-01-16T10:39:01.095Z,9.47
2018-01-16T10:41:29.456Z,5.60
2018-01-16T10:43:58.518Z,9.97
2018-01-16T10:46:26.878Z,8.60
2018-01-16T10:48:55.208Z,10.27
2018-01-16T10:51:23.536Z,8.77
2018-01-16T10:53:51.839Z,11.23
2018-01-16T10:56:20.144Z,11.03
2018-01-16T10:58:49.242Z,10.60
2018-01-16T11:01:17.816Z,8.87
2018-01-16T11:03:46.344Z,8.27
2018-01-16T11:06:14.686Z,4.97
2018-01-16T11:08:42.987Z,6.00
2018-01-16T11:11:11.305Z,7.43
2018-01-16T11:13:39.630Z,10.40
2018-01-16T11:16:07.991Z,5.30
2018-01-16T11:18:36.349Z,4.27
2018-01-16T11:21:05.457Z,6.23
2018-01-16T11:23:33.736Z,10.80
2018-01-16T11:26:02.042Z,4.30
2018-01-16T11:28:30.409Z,4.00
2018-01-16T11:30:58.754Z,6.97
2018-01-16T11:33:27.906Z,4.80
2018-01-16T11:35:56.184Z,4.10
2018-01-16T11:38:24.543Z,3.03
2018-01-16T11:40:52.889Z,5.03
2018-01-16T11:43:21.593Z,7.67
2018-01-16T11:45:50.677Z,5.70
2018-01-16T11:48:19.754Z,7.03
2018-01-16T11:50:48.153Z,10.97
2018-01-16T11:53:16.432Z,6.20
2018-01-16T11:55:44.789Z,9.13
2018-01-16T11:58:13.063Z,9.13
2018-01-16T12:00:41.428Z,5.77
2018-01-16T12:03:09.800Z,8.10
2018-01-16T12:05:38.082Z,6.13
2018-01-16T12:08:06.381Z,7.23
2018-01-16T12:10:34.720Z,4.03
2018-01-16T12:13:03.071Z,6.13
2018-01-16T12:15:31.355Z,4.30
2018-01-16T12:17:59.697Z,4.93
2018-01-16T12:20:28.027Z,4.03
2018-01-16T12:22:56.359Z,3.40
2018-01-16T12:25:24.670Z,4.10
2018-01-16T12:27:52.979Z,5.03
2018-01-16T12:30:21.317Z,3.83
2018-01-16T12:32:49.649Z,4.20
2018-01-16T12:35:17.983Z,6.77
2018-01-16T12:37:46.353Z,6.13
2018-01-16T12:40:14.691Z,6.73
2018-01-16T12:42:42.964Z,5.67
2018-01-16T12:45:11.541Z,7.27
2018-01-16T12:47:39.863Z,6.03
2018-01-16T12:50:08.944Z,5.03
2018-01-16T12:52:37.287Z,5.97
2018-01-16T12:55:05.534Z,6.87
2018-01-16T12:57:33.832Z,5.30
2018-01-16T13:00:02.126Z,7.10
2018-01-16T13:02:30.737Z,6.13
2018-01-16T13:04:59.012Z,5.07
2018-01-16T13:07:27.266Z,5.97
2018-01-16T13:09:55.643Z,11.27
2018-01-16T13:12:23.933Z,9.40
2018-01-16T13:14:52.225Z,6.17
2018-01-16T13:17:20.502Z,6.30
2018-01-16T13:19:49.528Z,7.03
2018-01-16T13:22:18.564Z,6.60
2018-01-16T13:24:47.265Z,7.00
2018-01-16T13:27:15.547Z,7.30
2018-01-16T13:29:43.810Z,6.80
2018-01-16T13:32:12.105Z,7.47
2018-01-16T13:34:41.069Z,6.97
2018-01-16T13:37:09.367Z,8.03
2018-01-16T13:39:37.743Z,7.60
2018-01-16T13:42:06.044Z,9.17
2018-01-16T13:44:34.299Z,7.77
2018-01-16T13:47:02.890Z,7.20
2018-01-16T13:49:31.181Z,11.40
2018-01-16T13:51:59.481Z,8.20
2018-01-16T13:54:28.549Z,10.83
2018-01-16T13:56:56.824Z,10.10
2018-01-16T13:59:25.185Z,11.07
2018-01-16T14:01:53.449Z,9.13
2018-01-16T14:04:21.785Z,13.90
2018-01-16T14:06:50.832Z,8.97
2018-01-16T14:09:19.157Z,9.20
2018-01-16T14:11:47.470Z,11.23
2018-01-16T14:14:15.737Z,8.57
2018-01-16T14:16:44.033Z,8.07
2018-01-16T14:19:12.359Z,5.97
2018-01-16T14:21:40.720Z,4.27
2018-01-16T14:24:08.988Z,1.90
2018-01-16T14:26:37.272Z,1.50
2018-01-16T14:29:05.609Z,1.83
2018-01-16T14:31:34.785Z,1.63
2018-01-16T14:34:03.102Z,2.00
2018-01-16T14:36:31.368Z,4.43
2018-01-16T14:38:59.672Z,1.83
2018-01-16T14:41:27.935Z,1.87
2018-01-16T14:43:56.257Z,1.73
2018-01-16T14:46:24.556Z,5.00
2018-01-16T14:48:52.812Z,4.73
2018-01-16T14:51:21.110Z,5.83
2018-01-16T14:53:50.232Z,2.90
2018-01-16T14:56:18.521Z,3.70
2018-01-16T14:58:47.204Z,1.70
2018-01-16T15:01:15.472Z,3.97
2018-01-16T15:03:43.984Z,3.87
2018-01-16T15:06:12.253Z,5.03
2018-01-16T15:08:41.334Z,6.87
2018-01-16T15:11:09.697Z,1.90
2018-01-16T15:13:38.835Z,1.67
2018-01-16T15:16:07.094Z,2.70
2018-01-16T15:18:35.376Z,4.00
2018-01-16T15:21:03.697Z,2.43
2018-01-16T15:23:31.979Z,4.87
2018-01-16T15:26:00.306Z,2.77
2018-01-16T15:28:28.598Z,2.17
2018-01-16T15:30:56.938Z,3.27
2018-01-16T15:33:25.997Z,4.53
2018-01-16T15:35:54.297Z,6.23
2018-01-16T15:38:22.654Z,2.40
2018-01-16T15:40:51.673Z,5.80
2018-01-16T15:43:20.092Z,2.40
2018-01-16T15:45:48.394Z,4.70
2018-01-16T15:48:16.713Z,3.03
2018-01-16T15:50:45.823Z,4.10
2018-01-16T15:53:14.910Z,2.90
2018-01-16T15:55:43.223Z,3.90
2018-01-16T15:58:11.527Z,2.83
2018-01-16T16:00:39.830Z,2.73
2018-01-16T16:03:08.143Z,2.50
2018-01-16T16:05:36.510Z,2.00
2018-01-16T16:08:05.583Z,2.10
2018-01-16T16:10:33.942Z,8.47
2018-01-16T16:13:02.284Z,6.47
2018-01-16T16:15:30.596Z,3.87
2018-01-16T16:17:58.925Z,3.17
2018-01-16T16:20:27.264Z,2.23
2018-01-16T16:22:55.618Z,3.80
2018-01-16T16:25:24.098Z,2.00
2018-01-16T16:27:52.450Z,2.43
2018-01-16T16:30:21.593Z,2.90
2018-01-16T16:32:50.193Z,1.37
2018-01-16T16:35:18.548Z,1.50
2018-01-16T16:37:46.815Z,1.90
2018-01-16T16:40:15.158Z,1.70
2018-01-16T16:42:44.297Z,2.03
2018-01-16T16:45:12.609Z,5.90
2018-01-16T16:47:40.998Z,3.20
2018-01-16T16:50:09.303Z,2.03
2018-01-16T16:52:38.375Z,2.10
2018-01-16T16:55:06.681Z,2.47
2018-01-16T16:57:35.015Z,1.90
2018-01-16T17:00:03.309Z,1.33
2018-01-16T17:02:31.664Z,1.90
2018-01-16T17:04:59.972Z,2.33
2018-01-16T17:07:28.327Z,2.00
2018-01-16T17:09:56.623Z,1.83
2018-01-16T17:12:24.928Z,1.63
2018-01-16T17:14:54.079Z,2.43
2018-01-16T17:17:22.391Z,4.77
2018-01-16T17:19:51.387Z,4.97
2018-01-16T17:22:21.515Z,1.77
2018-01-16T17:24:49.874Z,2.97
2018-01-16T17:27:18.196Z,2.53
2018-01-16T17:29:46.485Z,3.13
2018-01-16T17:32:14.793Z,2.47
2018-01-16T17:34:43.075Z,1.83
2018-01-16T17:37:11.352Z,1.77
2018-01-16T17:39:39.690Z,1.63
2018-01-16T17:42:07.968Z,2.03
2018-01-16T17:44:37.013Z,1.93
2018-01-16T17:47:06.162Z,3.37
2018-01-16T17:49:34.457Z,5.67
2018-01-16T17:52:02.749Z,1.00
2018-01-16T17:54:31.667Z,0.90
2018-01-16T17:57:00.063Z,1.00
2018-01-16T17:59:30.775Z,5.80
2018-01-16T18:01:59.274Z,1.00
2018-01-16T18:04:27.644Z,0.90
2018-01-16T18:06:55.988Z,1.70
2018-01-16T18:09:24.331Z,0.97
2018-01-16T18:11:53.537Z,1.77
2018-01-16T18:14:23.159Z,0.70
2018-01-16T18:16:51.466Z,2.13
2018-01-16T18:19:19.808Z,0.90
2018-01-16T18:21:48.156Z,3.70
2018-01-16T18:24:19.753Z,1.00
2018-01-16T18:26:48.160Z,0.80
2018-01-16T18:29:16.529Z,1.00
2018-01-16T18:31:44.861Z,0.70
2018-01-16T18:34:13.171Z,0.70
2018-01-16T18:36:41.469Z,0.90
2018-01-16T18:39:09.793Z,2.37
2018-01-16T18:41:38.938Z,1.53
2018-01-16T18:44:08.868Z,2.90
2018-01-16T18:46:37.257Z,1.17
2018-01-16T18:49:05.581Z,0.70
2018-01-16T18:51:34.027Z,0.70
2018-01-16T18:54:02.331Z,2.50
2018-01-16T18:56:40.595Z,1.37
2018-01-16T18:59:09.929Z,0.87
2018-01-16T19:01:38.201Z,0.90
2018-01-16T19:04:06.605Z,8.43
2018-01-16T19:06:38.590Z,2.00
2018-01-16T19:09:07.657Z,0.90
2018-01-16T19:11:35.950Z,1.10
2018-01-16T19:14:04.305Z,1.00
2018-01-16T19:16:32.598Z,3.03
2018-01-16T19:19:01.645Z,0.87
2018-01-16T19:21:29.955Z,0.83
2018-01-16T19:23:58.258Z,1.00
2018-01-16T19:26:26.702Z,1.03
2018-01-16T19:28:54.956Z,1.03
2018-01-16T19:31:23.262Z,0.90
2018-01-16T19:33:51.674Z,0.60
2018-01-16T19:36:21.912Z,0.80
2018-01-16T19:38:50.269Z,3.57
2018-01-16T19:41:19.352Z,0.70
2018-01-16T19:43:48.591Z,0.70
2018-01-16T19:46:17.007Z,0.80
2018-01-16T19:48:45.958Z,2.27
2018-01-16T19:51:15.284Z,0.70
2018-01-16T19:53:43.580Z,0.80
2018-01-16T19:56:15.043Z,1.00
2018-01-16T19:58:44.791Z,1.20
2018-01-16T20:01:13.879Z,1.40
2018-01-16T20:03:42.577Z,5.40
2018-01-16T20:06:10.965Z,1.30
2018-01-16T20:08:42.401Z,0.90
2018-01-16T20:11:11.620Z,2.73
2018-01-16T20:13:39.935Z,0.93
2018-01-16T20:16:09.455Z,1.10
2018-01-16T20:18:37.907Z,2.53
2018-01-16T20:21:06.212Z,0.80
2018-01-16T20:23:34.534Z,0.90
2018-01-16T20:26:03.657Z,3.40
2018-01-16T20:28:33.051Z,1.90
2018-01-16T20:31:01.400Z,0.70
2018-01-16T20:33:30.515Z,3.67
2018-01-16T20:35:58.809Z,1.10
2018-01-16T20:38:28.045Z,1.37
2018-01-16T20:40:57.663Z,0.80
2018-01-16T20:43:26.098Z,1.00
2018-01-16T20:45:54.562Z,2.77
2018-01-16T20:48:23.030Z,0.90
2018-01-16T20:50:51.575Z,1.67
2018-01-16T20:53:20.835Z,0.70
2018-01-16T20:55:49.177Z,0.70
2018-01-16T20:58:17.526Z,1.97
2018-01-16T21:00:45.837Z,0.77
2018-01-16T21:03:14.190Z,0.70
2018-01-16T21:05:42.505Z,4.50
2018-01-16T21:08:10.871Z,4.50
2018-01-16T21:10:42.735Z,1.07
2018-01-16T21:13:11.087Z,0.83
2018-01-16T21:15:39.485Z,0.70
2018-01-16T21:18:07.812Z,0.70
2018-01-16T21:20:36.297Z,1.37
2018-01-16T21:23:04.600Z,0.90
2018-01-16T21:25:32.979Z,0.70
2018-01-16T21:28:01.401Z,1.07
2018-01-16T21:30:30.588Z,1.43
2018-01-16T21:32:58.897Z,2.30
2018-01-16T21:35:27.287Z,0.70
2018-01-16T21:37:56.660Z,4.43
2018-01-16T21:40:25.091Z,0.70
2018-01-16T21:42:53.408Z,0.90
2018-01-16T21:45:21.754Z,1.67
2018-01-16T21:47:50.264Z,0.70
2018-01-16T21:50:20.273Z,0.83
2018-01-16T21:52:48.661Z,0.80
2018-01-16T21:55:16.940Z,0.80
2018-01-16T21:57:46.115Z,2.60
2018-01-16T22:00:14.527Z,1.90
2018-01-16T22:02:44.295Z,0.70
2018-01-16T22:05:12.698Z,0.70
2018-01-16T22:07:41.055Z,0.70
2018-01-16T22:10:09.324Z,3.17
2018-01-16T22:12:38.486Z,0.80
2018-01-16T22:15:07.547Z,0.70
2018-01-16T22:17:35.843Z,0.70
2018-01-16T22:20:04.101Z,1.00
2018-01-16T22:22:33.264Z,0.83
2018-01-16T22:25:02.297Z,0.77
2018-01-16T22:27:30.601Z,0.87
2018-01-16T22:29:58.892Z,0.60
2018-01-16T22:32:29.559Z,1.00
2018-01-16T22:34:58.723Z,0.77
2018-01-16T22:37:27.012Z,1.23
2018-01-16T22:39:56.083Z,0.70
2018-01-16T22:42:24.501Z,0.67
2018-01-16T22:44:52.884Z,0.90
2018-01-16T22:47:21.187Z,0.70
2018-01-16T22:49:49.465Z,0.70
2018-01-16T22:52:17.810Z,0.70
2018-01-16T22:54:46.790Z,0.80
2018-01-16T22:57:16.163Z,0.67
2018-01-16T22:59:44.486Z,0.93
2018-01-16T23:02:12.750Z,0.60
2018-01-16T23:04:42.058Z,0.70
2018-01-16T23:07:11.818Z,0.90
2018-01-16T23:09:40.230Z,1.30
2018-01-16T23:12:08.492Z,0.70
2018-01-16T23:14:36.927Z,0.87
2018-01-16T23:17:05.175Z,0.70
2018-01-16T23:19:34.248Z,0.70
2018-01-16T23:22:02.534Z,0.80
2018-01-16T23:24:31.604Z,0.70
2018-01-16T23:27:00.859Z,0.73
2018-01-16T23:29:29.204Z,0.70
2018-01-16T23:31:57.494Z,0.77
2018-01-16T23:34:26.554Z,0.70
2018-01-16T23:36:54.924Z,0.87
2018-01-16T23:39:23.177Z,0.80
2018-01-16T23:41:51.464Z,0.70
2018-01-16T23:44:21.341Z,0.80
2018-01-16T23:46:50.420Z,0.70
2018-01-16T23:49:18.740Z,0.70
2018-01-16T23:51:47.021Z,0.80
2018-01-16T23:54:15.333Z,0.70
2018-01-16T23:56:43.681Z,0.80
2018-01-16T23:59:11.955Z,0.70
